createdAt,value
2022-10-22T00:00:51.409Z,1065
2022-10-22T00:02:35.217Z,1060.7
2022-10-22T00:04:19.003Z,1057.1
2022-10-22T00:06:02.670Z,1053.6
2022-10-22T00:07:46.337Z,1053.4
2022-10-22T00:09:29.887Z,1051.1
2022-10-22T00:11:13.745Z,1042.1
2022-10-22T00:12:57.301Z,1043.3
2022-10-22T00:14:41.174Z,1041.8
2022-10-22T00:16:24.811Z,1042.5
2022-10-22T00:18:08.564Z,1041.7
2022-10-22T00:19:52.101Z,1037.6
2022-10-22T00:21:35.928Z,1034.3
2022-10-22T00:23:19.666Z,1032.2
2022-10-22T00:25:03.243Z,1033
2022-10-22T00:26:47.066Z,1031.4
2022-10-22T00:28:30.606Z,1025.7
2022-10-22T00:30:14.464Z,1020.5
2022-10-22T00:31:58.173Z,1016.4
2022-10-22T00:33:41.919Z,1012.8
2022-10-22T00:35:25.502Z,1010.5
2022-10-22T00:37:09.269Z,1009
2022-10-22T00:38:52.990Z,1006.6
2022-10-22T00:40:36.762Z,1003.7
2022-10-22T00:42:20.385Z,1000.1
2022-10-22T00:44:04.096Z,996.6
2022-10-22T00:45:47.793Z,998
2022-10-22T00:47:31.351Z,997.4
2022-10-22T00:49:15.192Z,998.2
2022-10-22T00:50:58.897Z,997.1
2022-10-22T00:52:42.609Z,997.3
2022-10-22T00:54:26.299Z,997.9
2022-10-22T00:56:09.853Z,996.4
2022-10-22T00:57:53.701Z,993.7
2022-10-22T00:59:37.392Z,989.5
2022-10-22T01:01:21.060Z,988.1
2022-10-22T01:03:04.849Z,986.5
2022-10-22T01:04:48.537Z,984.8
2022-10-22T01:06:32.215Z,982.8
2022-10-22T01:08:15.911Z,980.4
2022-10-22T01:09:59.605Z,976.4
2022-10-22T01:11:43.230Z,973.2
2022-10-22T01:13:27.010Z,967.4
2022-10-22T01:15:10.581Z,963.6
2022-10-22T01:16:54.453Z,963.4
2022-10-22T01:18:37.968Z,964.9
2022-10-22T01:20:21.798Z,963
2022-10-22T01:22:05.588Z,964.5
2022-10-22T01:23:49.221Z,960.1
2022-10-22T01:25:32.946Z,957.3
2022-10-22T01:27:16.499Z,956.1
2022-10-22T01:29:00.190Z,955.8
2022-10-22T01:30:44.069Z,955.1
2022-10-22T01:32:27.637Z,949.7
2022-10-22T01:34:11.313Z,943.9
2022-10-22T01:35:55.142Z,941
2022-10-22T01:37:38.824Z,941.3
2022-10-22T01:39:22.530Z,936.8
2022-10-22T01:41:06.086Z,934.5
2022-10-22T01:42:49.973Z,930.9
2022-10-22T01:44:33.677Z,930.3
2022-10-22T01:46:17.346Z,929.3
2022-10-22T01:48:01.046Z,926.4
2022-10-22T01:49:44.680Z,926.3
2022-10-22T01:51:28.297Z,924.2
2022-10-22T01:53:12.039Z,922.8
2022-10-22T01:54:55.717Z,922.9
2022-10-22T01:56:39.401Z,920.5
2022-10-22T01:58:23.081Z,920.2
2022-10-22T02:00:06.957Z,918.5
2022-10-22T02:01:50.692Z,916.5
2022-10-22T02:03:34.385Z,917
2022-10-22T02:05:18.091Z,915.8
2022-10-22T02:07:01.764Z,911.7
2022-10-22T02:08:45.458Z,909.2
2022-10-22T02:10:29.008Z,905.4
2022-10-22T02:12:12.771Z,905.1
2022-10-22T02:13:56.595Z,900.2
2022-10-22T02:15:40.286Z,898.2
2022-10-22T02:17:23.933Z,897.4
2022-10-22T02:19:07.675Z,894.2
2022-10-22T02:20:51.346Z,892.9
2022-10-22T02:22:35.074Z,890.7
2022-10-22T02:24:18.782Z,887.2
2022-10-22T02:26:02.470Z,885.2
2022-10-22T02:27:46.164Z,883.9
2022-10-22T02:29:29.849Z,883.3
2022-10-22T02:31:13.542Z,878.9
2022-10-22T02:32:57.298Z,874.2
2022-10-22T02:34:40.857Z,874
2022-10-22T02:36:24.629Z,876
2022-10-22T02:38:08.246Z,874.4
2022-10-22T02:39:51.958Z,873.1
2022-10-22T02:41:35.700Z,869.2
2022-10-22T02:43:19.458Z,869.2
2022-10-22T02:45:03.147Z,863.3
2022-10-22T02:46:46.783Z,859.8
2022-10-22T02:48:30.525Z,857.7
2022-10-22T02:50:14.164Z,856.6
2022-10-22T02:51:57.908Z,857.1
2022-10-22T02:53:41.722Z,857.1
2022-10-22T02:55:25.275Z,852.4
2022-10-22T02:57:08.954Z,851.5
2022-10-22T02:58:52.664Z,851.2
2022-10-22T03:00:36.503Z,848
2022-10-22T03:02:20.254Z,847.3
2022-10-22T03:04:03.792Z,845
2022-10-22T03:05:47.599Z,844.9
2022-10-22T03:07:31.299Z,843.5
2022-10-22T03:09:15.026Z,844.3
2022-10-22T03:10:58.595Z,843.7
2022-10-22T03:12:42.316Z,842.9
2022-10-22T03:14:26.009Z,842.9
2022-10-22T03:16:09.798Z,841.3
2022-10-22T03:17:53.559Z,839.8
2022-10-22T03:19:37.069Z,839.7
2022-10-22T03:21:20.886Z,836.2
2022-10-22T03:23:04.635Z,833.7
2022-10-22T03:24:48.271Z,831.2
2022-10-22T03:26:32.002Z,834.9
2022-10-22T03:28:15.651Z,833.7
2022-10-22T03:29:59.317Z,831.6
2022-10-22T03:31:43.051Z,828.6
2022-10-22T03:33:26.725Z,821.7
2022-10-22T03:35:10.406Z,821
2022-10-22T03:36:54.196Z,816.7
2022-10-22T03:38:37.776Z,815.8
2022-10-22T03:40:21.483Z,812.4
2022-10-22T03:42:05.249Z,814.2
2022-10-22T03:43:48.932Z,814.5
2022-10-22T03:45:32.616Z,816.9
2022-10-22T03:47:16.298Z,812.6
2022-10-22T03:49:00.007Z,810.6
2022-10-22T03:50:43.694Z,808.1
2022-10-22T03:52:27.395Z,805.4
2022-10-22T03:54:11.142Z,802.5
2022-10-22T03:55:54.875Z,803.3
2022-10-22T03:57:38.506Z,802.8
2022-10-22T03:59:22.198Z,803.8
2022-10-22T04:01:05.891Z,804.8
2022-10-22T04:02:49.751Z,803
2022-10-22T04:04:33.342Z,798.2
2022-10-22T04:06:17.019Z,796.9
2022-10-22T04:08:00.710Z,795.7
2022-10-22T04:09:44.401Z,796.7
2022-10-22T04:11:28.109Z,797.8
2022-10-22T04:13:11.786Z,796.3
2022-10-22T04:14:55.555Z,795.5
2022-10-22T04:16:39.230Z,793.4
2022-10-22T04:18:22.907Z,789.2
2022-10-22T04:20:06.597Z,788.6
2022-10-22T04:21:50.294Z,786.4
2022-10-22T04:23:34.008Z,782.8
2022-10-22T04:25:17.814Z,779.3
2022-10-22T04:27:01.436Z,780.7
2022-10-22T04:28:45.116Z,781.8
2022-10-22T04:30:28.796Z,777.8
2022-10-22T04:32:12.515Z,775.9
2022-10-22T04:33:56.200Z,775.9
2022-10-22T04:35:39.893Z,777.4
2022-10-22T04:37:23.649Z,779.6
2022-10-22T04:39:07.323Z,781.2
2022-10-22T04:40:51.010Z,779.5
2022-10-22T04:42:34.713Z,778.8
2022-10-22T04:44:18.403Z,774.7
2022-10-22T04:46:02.166Z,771.2
2022-10-22T04:47:45.844Z,770.1
2022-10-22T04:49:29.538Z,766
2022-10-22T04:51:13.211Z,764.7
2022-10-22T04:52:56.933Z,764.7
2022-10-22T04:54:40.609Z,763.5
2022-10-22T04:56:24.366Z,762.8
2022-10-22T04:58:08.050Z,763.2
2022-10-22T04:59:51.730Z,762.1
2022-10-22T05:01:35.410Z,760.7
2022-10-22T05:03:19.146Z,760.7
2022-10-22T05:05:02.828Z,759.2
2022-10-22T05:06:46.604Z,756.3
2022-10-22T05:08:30.261Z,753.2
2022-10-22T05:10:13.932Z,750.6
2022-10-22T05:11:57.615Z,749
2022-10-22T05:13:41.326Z,749
2022-10-22T05:15:25.026Z,746.6
2022-10-22T05:17:08.887Z,746.8
2022-10-22T05:18:52.458Z,745.3
2022-10-22T05:20:36.138Z,743.3
2022-10-22T05:22:19.836Z,740.7
2022-10-22T05:24:03.555Z,740.5
2022-10-22T05:25:47.253Z,739.7
2022-10-22T05:27:30.994Z,735.4
2022-10-22T05:29:14.664Z,733.1
2022-10-22T05:30:58.354Z,733.2
2022-10-22T05:32:42.050Z,733.4
2022-10-22T05:34:25.755Z,730.7
2022-10-22T05:36:09.503Z,731.5
2022-10-22T05:37:53.188Z,728.8
2022-10-22T05:39:36.866Z,732.2
2022-10-22T05:41:20.573Z,734.2
2022-10-22T05:43:04.270Z,732.5
2022-10-22T05:44:47.957Z,730.3
2022-10-22T05:46:31.713Z,726.5
2022-10-22T05:48:15.399Z,726
2022-10-22T05:49:59.078Z,725.3
2022-10-22T05:51:42.777Z,727
2022-10-22T05:53:26.472Z,731.1
2022-10-22T05:55:10.238Z,730.8
2022-10-22T05:56:53.914Z,730.6
2022-10-22T05:58:37.611Z,731.3
2022-10-22T06:00:21.312Z,732.5
2022-10-22T06:02:04.986Z,729.5
2022-10-22T06:03:48.679Z,725.8
2022-10-22T06:05:32.367Z,724.5
2022-10-22T06:07:16.126Z,721.1
2022-10-22T06:08:59.818Z,719.4
2022-10-22T06:10:43.487Z,715.7
2022-10-22T06:12:27.266Z,715.8
2022-10-22T06:14:10.874Z,716.1
2022-10-22T06:15:54.569Z,716.2
2022-10-22T06:17:38.323Z,716.8
2022-10-22T06:19:22.009Z,715.7
2022-10-22T06:21:05.715Z,714.9
2022-10-22T06:22:49.381Z,712.3
2022-10-22T06:24:33.076Z,713
2022-10-22T06:26:16.780Z,712.6
2022-10-22T06:28:00.469Z,711
2022-10-22T06:29:44.234Z,707.3
2022-10-22T06:31:27.896Z,709.1
2022-10-22T06:33:11.599Z,708.6
2022-10-22T06:34:55.294Z,706.3
2022-10-22T06:36:38.999Z,703.9
2022-10-22T06:38:22.735Z,702.5
2022-10-22T06:40:06.500Z,704.8
2022-10-22T06:41:50.099Z,705.3
2022-10-22T06:43:33.949Z,706.2
2022-10-22T06:45:17.612Z,704.5
2022-10-22T06:47:01.366Z,702.3
2022-10-22T06:48:45.105Z,702.5
2022-10-22T06:50:28.622Z,700
2022-10-22T06:52:12.438Z,695.6
2022-10-22T06:53:56.166Z,696.3
2022-10-22T06:55:39.823Z,696.5
2022-10-22T06:57:23.656Z,697.4
2022-10-22T06:59:07.146Z,697
2022-10-22T07:00:50.911Z,696.4
2022-10-22T07:02:34.665Z,692.7
2022-10-22T07:04:18.293Z,692.6
2022-10-22T07:06:01.957Z,692.6
2022-10-22T07:07:45.815Z,690.2
2022-10-22T07:09:29.509Z,692
2022-10-22T07:11:13.155Z,696.8
2022-10-22T07:12:56.861Z,697.7
2022-10-22T07:14:40.578Z,697.1
2022-10-22T07:16:24.246Z,696
2022-10-22T07:18:07.919Z,696.7
2022-10-22T07:19:51.610Z,693.5
2022-10-22T07:21:35.393Z,692.7
2022-10-22T07:23:19.068Z,691.6
2022-10-22T07:25:02.771Z,688.5
2022-10-22T07:26:46.447Z,689.3
2022-10-22T07:28:30.217Z,689.2
2022-10-22T07:30:13.908Z,687.7
2022-10-22T07:31:57.443Z,689.5
2022-10-22T07:33:41.280Z,688.3
2022-10-22T07:35:24.981Z,687.6
2022-10-22T07:37:08.689Z,690.1
2022-10-22T07:38:52.434Z,688.9
2022-10-22T07:40:36.123Z,689.1
2022-10-22T07:42:19.752Z,688.3
2022-10-22T07:44:03.478Z,686.5
2022-10-22T07:45:47.199Z,686.7
2022-10-22T07:47:30.828Z,690.2
2022-10-22T07:49:14.583Z,690.6
2022-10-22T07:50:58.300Z,693.3
2022-10-22T07:52:41.943Z,693.5
2022-10-22T07:54:25.662Z,692.3
2022-10-22T07:56:09.403Z,688.2
2022-10-22T07:57:53.176Z,680
2022-10-22T07:59:36.852Z,680.7
2022-10-22T08:01:20.377Z,681.8
2022-10-22T08:03:04.118Z,682.5
2022-10-22T08:04:47.824Z,684.8
2022-10-22T08:06:31.501Z,687.2
2022-10-22T08:08:15.270Z,695.8
2022-10-22T08:09:59.018Z,706.8
2022-10-22T08:11:42.731Z,713.4
2022-10-22T08:13:26.313Z,713.8
2022-10-22T08:15:09.988Z,719.6
2022-10-22T08:16:53.784Z,730.9
2022-10-22T08:18:37.532Z,782.5
2022-10-22T08:20:21.215Z,793.4
2022-10-22T08:22:04.819Z,802.4
2022-10-22T08:23:48.516Z,819.6
2022-10-22T08:25:32.275Z,834.6
2022-10-22T08:27:16.023Z,834.3
2022-10-22T08:28:59.713Z,832.5
2022-10-22T08:30:43.444Z,840
2022-10-22T08:32:27.123Z,847.5
2022-10-22T08:34:10.814Z,850.8
2022-10-22T08:35:54.472Z,861.2
2022-10-22T08:37:38.213Z,888.1
2022-10-22T08:39:21.923Z,908.9
2022-10-22T08:41:05.589Z,908.9
2022-10-22T08:42:49.294Z,912.7
2022-10-22T08:44:32.954Z,919
2022-10-22T08:46:16.638Z,923.6
2022-10-22T08:48:00.301Z,924.5
2022-10-22T08:49:44.133Z,923
2022-10-22T08:51:27.722Z,918.8
2022-10-22T08:53:11.510Z,915.6
2022-10-22T08:54:55.247Z,914.6
2022-10-22T08:56:38.893Z,912.4
2022-10-22T08:58:22.677Z,903.7
2022-10-22T09:00:06.364Z,893.7
2022-10-22T09:01:49.933Z,883.3
2022-10-22T09:03:33.709Z,874.7
2022-10-22T09:05:17.450Z,868.1
2022-10-22T09:07:01.053Z,863.3
2022-10-22T09:08:44.896Z,862.1
2022-10-22T09:10:28.475Z,855
2022-10-22T09:12:12.225Z,852.2
2022-10-22T09:13:55.941Z,851.3
2022-10-22T09:15:39.671Z,850.5
2022-10-22T09:17:23.324Z,847.4
2022-10-22T09:19:07.090Z,845.4
2022-10-22T09:20:50.763Z,842.7
2022-10-22T09:22:34.513Z,843.7
2022-10-22T09:24:18.171Z,845.1
2022-10-22T09:26:01.744Z,847.1
2022-10-22T09:27:45.636Z,842.8
2022-10-22T09:29:29.175Z,838.6
2022-10-22T09:31:12.873Z,839.1
2022-10-22T09:32:56.708Z,844.9
2022-10-22T09:34:40.348Z,843.9
2022-10-22T09:36:24.078Z,842.1
2022-10-22T09:38:07.865Z,846.2
2022-10-22T09:39:51.531Z,851.1
2022-10-22T09:41:35.193Z,853.2
2022-10-22T09:43:18.753Z,856.5
2022-10-22T09:45:02.595Z,854.3
2022-10-22T09:46:46.248Z,850.8
2022-10-22T09:48:30.042Z,847.9
2022-10-22T09:50:13.608Z,846.1
2022-10-22T09:51:57.397Z,847
2022-10-22T09:53:41.090Z,848.8
2022-10-22T09:55:24.774Z,854
2022-10-22T09:57:08.537Z,854.8
2022-10-22T09:58:52.259Z,856.9
2022-10-22T10:00:35.941Z,859.6
2022-10-22T10:02:19.556Z,864
2022-10-22T10:04:03.176Z,862.4
2022-10-22T10:05:47.022Z,857.1
2022-10-22T10:07:30.634Z,851.5
2022-10-22T10:09:14.313Z,845.1
2022-10-22T10:10:58.146Z,840.1
2022-10-22T10:12:41.834Z,834.6
2022-10-22T10:14:25.544Z,834
2022-10-22T10:16:09.328Z,830.7
2022-10-22T10:17:52.992Z,834
2022-10-22T10:19:36.694Z,837.8
2022-10-22T10:21:20.361Z,838
2022-10-22T10:23:04.071Z,838.9
2022-10-22T10:24:47.601Z,838.9
2022-10-22T10:26:31.522Z,835.6
2022-10-22T10:28:15.048Z,833.8
2022-10-22T10:29:58.867Z,830.5
2022-10-22T10:31:42.542Z,818.2
2022-10-22T10:33:26.257Z,791.4
2022-10-22T10:35:09.970Z,793
2022-10-22T10:36:53.618Z,795.4
2022-10-22T10:38:37.267Z,799.1
2022-10-22T10:40:20.951Z,799.2
2022-10-22T10:42:04.760Z,802.3
2022-10-22T10:43:48.381Z,807.4
2022-10-22T10:45:32.120Z,807.9
2022-10-22T10:47:15.796Z,806.4
2022-10-22T10:48:59.469Z,804.9
2022-10-22T10:50:43.164Z,804.7
2022-10-22T10:52:26.888Z,807.3
2022-10-22T10:54:10.625Z,808.5
2022-10-22T10:55:54.334Z,810.2
2022-10-22T10:57:37.982Z,807.8
2022-10-22T10:59:21.680Z,806.3
2022-10-22T11:01:05.440Z,803.7
2022-10-22T11:02:49.152Z,802.7
2022-10-22T11:04:32.854Z,804.7
2022-10-22T11:06:16.543Z,804.9
2022-10-22T11:08:00.196Z,805.7
2022-10-22T11:09:43.887Z,802.9
2022-10-22T11:11:27.595Z,798.3
2022-10-22T11:13:11.283Z,801.5
2022-10-22T11:14:55.028Z,801.3
2022-10-22T11:16:38.709Z,801
2022-10-22T11:18:22.394Z,803.8
2022-10-22T11:20:06.126Z,806.4
2022-10-22T11:21:49.840Z,810.7
2022-10-22T11:23:33.553Z,817.8
2022-10-22T11:25:17.233Z,823.8
2022-10-22T11:27:00.913Z,827.4
2022-10-22T11:28:44.610Z,827
2022-10-22T11:30:28.299Z,828.1
2022-10-22T11:32:12.020Z,825.8
2022-10-22T11:33:55.768Z,826
2022-10-22T11:35:39.435Z,823.4
2022-10-22T11:37:23.133Z,823.5
2022-10-22T11:39:06.831Z,822.4
2022-10-22T11:40:50.520Z,819.8
2022-10-22T11:42:34.275Z,821.8
2022-10-22T11:44:17.967Z,827
2022-10-22T11:46:01.656Z,833.3
2022-10-22T11:47:45.331Z,839.3
2022-10-22T11:49:29.042Z,840.4
2022-10-22T11:51:12.738Z,841.7
2022-10-22T11:52:56.491Z,844.3
2022-10-22T11:54:40.171Z,846.4
2022-10-22T11:56:23.861Z,851.7
2022-10-22T11:58:07.556Z,852.8
2022-10-22T11:59:51.264Z,853.2
2022-10-22T12:01:35.007Z,849.7
2022-10-22T12:03:18.697Z,847.3
2022-10-22T12:05:02.404Z,837.4
2022-10-22T12:06:46.078Z,826.3
2022-10-22T12:08:29.776Z,822.1
2022-10-22T12:10:13.467Z,821.1
2022-10-22T12:11:57.216Z,821.7
2022-10-22T12:13:40.899Z,817.7
2022-10-22T12:15:24.588Z,815.3
2022-10-22T12:17:08.279Z,814.9
2022-10-22T12:18:51.983Z,817.4
2022-10-22T12:20:35.839Z,821
2022-10-22T12:22:19.429Z,822.3
2022-10-22T12:24:03.102Z,823.3
2022-10-22T12:25:46.798Z,825.8
2022-10-22T12:27:30.500Z,830.1
2022-10-22T12:29:14.260Z,830.2
2022-10-22T12:30:57.950Z,832.7
2022-10-22T12:32:41.638Z,839.1
2022-10-22T12:34:25.327Z,840.1
2022-10-22T12:36:09.013Z,840
2022-10-22T12:37:52.700Z,843.7
2022-10-22T12:39:36.469Z,840.6
2022-10-22T12:41:20.149Z,839.7
2022-10-22T12:43:03.835Z,838.7
2022-10-22T12:44:47.517Z,840.3
2022-10-22T12:46:31.230Z,841.7
2022-10-22T12:48:14.934Z,844.1
2022-10-22T12:49:58.720Z,845.2
2022-10-22T12:51:42.353Z,846.1
2022-10-22T12:53:26.047Z,846
2022-10-22T12:55:09.763Z,849.4
2022-10-22T12:56:53.435Z,852.7
2022-10-22T12:58:37.217Z,851.7
2022-10-22T13:00:20.875Z,852.1
2022-10-22T13:02:04.565Z,852.5
2022-10-22T13:03:48.278Z,851.8
2022-10-22T13:05:31.962Z,856.4
2022-10-22T13:07:15.723Z,856.4
2022-10-22T13:08:59.408Z,857.6
2022-10-22T13:10:43.080Z,857.8
2022-10-22T13:12:26.765Z,862.3
2022-10-22T13:14:10.460Z,860.6
2022-10-22T13:15:54.167Z,863.7
2022-10-22T13:17:37.857Z,862.7
2022-10-22T13:19:21.605Z,871.2
2022-10-22T13:21:05.401Z,877.7
2022-10-22T13:22:48.970Z,876.1
2022-10-22T13:24:32.697Z,874.9
2022-10-22T13:26:16.381Z,869.9
2022-10-22T13:28:00.142Z,865
2022-10-22T13:29:43.814Z,887.6
2022-10-22T13:31:27.493Z,899
2022-10-22T13:33:11.181Z,898.1
2022-10-22T13:34:54.887Z,897.6
2022-10-22T13:36:38.584Z,889.7
2022-10-22T13:38:22.271Z,884.4
2022-10-22T13:40:06.021Z,880.9
2022-10-22T13:41:49.704Z,877.5
2022-10-22T13:43:33.392Z,877
2022-10-22T13:45:17.121Z,877.8
2022-10-22T13:47:00.867Z,878
2022-10-22T13:48:44.542Z,878
2022-10-22T13:50:28.221Z,880.5
2022-10-22T13:52:11.924Z,884.9
2022-10-22T13:53:55.617Z,885.3
2022-10-22T13:55:39.306Z,882.8
2022-10-22T13:57:23.062Z,899
2022-10-22T13:59:06.747Z,986.5
2022-10-22T14:00:50.424Z,985.3
2022-10-22T14:02:34.108Z,1005.6
2022-10-22T14:04:17.826Z,1025.5
2022-10-22T14:06:01.516Z,1036.2
2022-10-22T14:07:45.272Z,1038
2022-10-22T14:09:28.962Z,1022.3
2022-10-22T14:11:12.643Z,1018.2
2022-10-22T14:12:56.342Z,1017.3
2022-10-22T14:14:40.039Z,1014.8
2022-10-22T14:16:23.808Z,1014.9
2022-10-22T14:18:07.476Z,1019.5
2022-10-22T14:19:51.159Z,1024.6
2022-10-22T14:21:34.879Z,1029.5
2022-10-22T14:23:18.544Z,1031.7
2022-10-22T14:25:02.242Z,1035.9
2022-10-22T14:26:46.033Z,1037.6
2022-10-22T14:28:29.700Z,1042
2022-10-22T14:30:13.410Z,1046
2022-10-22T14:31:57.061Z,1046.8
2022-10-22T14:33:40.787Z,1053.4
2022-10-22T14:35:24.446Z,1052.3
2022-10-22T14:37:08.208Z,1049.6
2022-10-22T14:38:51.909Z,1051.7
2022-10-22T14:40:35.564Z,1057.1
2022-10-22T14:42:19.535Z,1061
2022-10-22T14:44:02.989Z,1061.2
2022-10-22T14:45:46.667Z,1063.3
2022-10-22T14:47:30.448Z,1069.7
2022-10-22T14:49:14.100Z,1079.2
2022-10-22T14:50:57.771Z,1083.9
2022-10-22T14:52:41.526Z,1085.2
2022-10-22T14:54:25.231Z,1087.6
2022-10-22T14:56:08.938Z,1092.2
2022-10-22T14:57:52.653Z,1094.1
2022-10-22T14:59:36.312Z,1091.5
2022-10-22T15:01:20.056Z,1088.7
2022-10-22T15:03:03.703Z,1090
2022-10-22T15:04:47.436Z,1088.7
2022-10-22T15:06:31.150Z,1084.2
2022-10-22T15:08:14.831Z,1083.7
2022-10-22T15:09:58.546Z,1085.9
2022-10-22T15:11:42.232Z,1088.8
2022-10-22T15:13:25.960Z,1089.9
2022-10-22T15:15:09.665Z,1090.9
2022-10-22T15:16:53.417Z,1091
2022-10-22T15:18:37.036Z,1096
2022-10-22T15:20:20.717Z,1108.9
2022-10-22T15:23:48.228Z,1119.4
2022-10-22T15:25:31.877Z,1119.3
2022-10-22T15:27:15.592Z,1122
2022-10-22T15:28:59.263Z,1119
2022-10-22T15:30:43.038Z,1117.5
2022-10-22T15:32:26.669Z,1119.2
2022-10-22T15:34:10.340Z,1117.5
2022-10-22T15:35:54.077Z,1112.8
2022-10-22T15:37:37.756Z,1114.7
2022-10-22T15:39:21.492Z,1118.2
2022-10-22T15:41:05.220Z,1121.8
2022-10-22T15:42:48.868Z,1124.5
2022-10-22T15:44:32.535Z,1124.1
2022-10-22T15:46:16.382Z,1122
2022-10-22T15:47:59.975Z,1120.5
2022-10-22T15:49:43.653Z,1114.3
2022-10-22T15:51:27.504Z,1109.6
2022-10-22T15:53:11.047Z,1112.9
2022-10-22T15:54:54.942Z,1118.7
2022-10-22T15:56:38.533Z,1125.6
2022-10-22T15:58:22.235Z,1133
2022-10-22T16:00:05.869Z,1138.6
2022-10-22T16:01:49.560Z,1142
2022-10-22T16:03:33.332Z,1140.2
2022-10-22T16:05:17.047Z,1133.1
2022-10-22T16:07:00.777Z,1123.7
2022-10-22T16:08:44.368Z,1120.7
2022-10-22T16:10:28.087Z,1125.1
2022-10-22T16:12:11.804Z,1130.8
2022-10-22T16:13:55.597Z,1131.5
2022-10-22T16:15:39.239Z,1129
2022-10-22T16:17:22.899Z,1132.2
2022-10-22T16:19:06.598Z,1129.9
2022-10-22T16:20:50.378Z,1125.3
2022-10-22T16:22:34.029Z,1134.5
2022-10-22T16:24:17.735Z,1148.3
2022-10-22T16:26:01.418Z,1160.3
2022-10-22T16:27:45.124Z,1174.8
2022-10-22T16:31:12.497Z,1192.9
2022-10-22T16:32:56.285Z,1199.7
2022-10-22T16:34:39.959Z,1203.2
2022-10-22T16:36:23.667Z,1211.4
2022-10-22T16:38:07.325Z,1214.2
2022-10-22T16:39:51.098Z,1213.3
2022-10-22T16:41:34.699Z,1210.8
2022-10-22T16:43:18.501Z,1209.4
2022-10-22T16:45:02.176Z,1211.5
2022-10-22T16:46:45.914Z,1218.2
2022-10-22T16:48:29.542Z,1225.4
2022-10-22T16:50:13.233Z,1228.5
2022-10-22T16:51:56.959Z,1227.9
2022-10-22T16:53:40.662Z,1229.5
2022-10-22T16:55:24.351Z,1230.3
2022-10-22T16:57:08.029Z,1240.1
2022-10-22T16:58:51.772Z,1245.1
2022-10-22T17:00:35.412Z,1242.2
2022-10-22T17:02:19.125Z,1246.5
2022-10-22T17:04:02.931Z,1250.6
2022-10-22T17:05:46.577Z,1249.2
2022-10-22T17:07:30.276Z,1250
2022-10-22T17:09:13.980Z,1251.6
2022-10-22T17:10:57.660Z,1259.6
2022-10-22T17:12:41.325Z,1267.4
2022-10-22T17:14:25.087Z,1268.2
2022-10-22T17:16:08.759Z,1267.2
2022-10-22T17:17:52.450Z,1272.7
2022-10-22T17:19:36.150Z,1278.5
2022-10-22T17:21:19.859Z,1286.4
2022-10-22T17:23:03.671Z,1296.4
2022-10-22T17:24:47.279Z,1298.1
2022-10-22T17:26:30.994Z,1300.6
2022-10-22T17:28:14.674Z,1304.3
2022-10-22T17:29:58.360Z,1307.8
2022-10-22T17:31:42.121Z,1309.4
2022-10-22T17:35:09.498Z,1309.3
2022-10-22T17:36:53.172Z,1305.5
2022-10-22T17:38:36.885Z,1303.6
2022-10-22T17:40:20.567Z,1302.9
2022-10-22T17:42:04.376Z,1304.8
2022-10-22T17:43:48.013Z,1301.5
2022-10-22T17:45:31.691Z,1299
2022-10-22T17:47:15.466Z,1297.5
2022-10-22T17:48:59.105Z,1297.5
2022-10-22T17:50:42.791Z,1298.8
2022-10-22T17:52:26.540Z,1300.6
2022-10-22T17:54:10.248Z,1303.3
2022-10-22T17:55:53.900Z,1298.6
2022-10-22T17:57:37.584Z,1290.9
2022-10-22T17:59:21.307Z,1287.4
2022-10-22T18:01:04.989Z,1283.1
2022-10-22T18:02:48.737Z,1282.4
2022-10-22T18:04:32.423Z,1280.5
2022-10-22T18:06:16.137Z,1273.6
2022-10-22T18:07:59.792Z,1269.8
2022-10-22T18:09:43.536Z,1267.9
2022-10-22T18:11:27.223Z,1266.1
2022-10-22T18:13:10.950Z,1261.4
2022-10-22T18:14:54.631Z,1255.7
2022-10-22T18:16:38.309Z,1249.8
2022-10-22T18:18:22.002Z,1247.7
2022-10-22T18:20:05.689Z,1245.3
2022-10-22T18:21:49.398Z,1243.4
2022-10-22T18:23:33.103Z,1247.1
2022-10-22T18:25:16.854Z,1242.2
2022-10-22T18:27:00.514Z,1237.6
2022-10-22T18:28:44.279Z,1233.8
2022-10-22T18:30:27.903Z,1233.8
2022-10-22T18:32:11.622Z,1236.5
2022-10-22T18:33:55.356Z,1235.3
2022-10-22T18:35:39.044Z,1230.5
2022-10-22T18:37:22.724Z,1229.3
2022-10-22T18:39:06.453Z,1228.4
2022-10-22T18:40:50.121Z,1225.4
2022-10-22T18:42:33.869Z,1222.2
2022-10-22T18:44:17.580Z,1221.6
2022-10-22T18:46:01.239Z,1218.4
2022-10-22T18:47:44.918Z,1217.4
2022-10-22T18:49:28.608Z,1217.8
2022-10-22T18:51:12.312Z,1219.2
2022-10-22T18:52:56.033Z,1217.9
2022-10-22T18:54:39.810Z,1219.3
2022-10-22T18:56:23.446Z,1219
2022-10-22T18:58:07.129Z,1217
2022-10-22T18:59:50.827Z,1215.9
2022-10-22T19:01:34.529Z,1213
2022-10-22T19:03:18.217Z,1211.1
2022-10-22T19:05:02.114Z,1208.9
2022-10-22T19:06:45.662Z,1209.1
2022-10-22T19:08:29.333Z,1212.9
2022-10-22T19:10:13.012Z,1211.5
2022-10-22T19:11:56.773Z,1208
2022-10-22T19:13:40.490Z,1205.5
2022-10-22T19:15:24.173Z,1206
2022-10-22T19:17:07.878Z,1203.9
2022-10-22T19:18:51.557Z,1203.7
2022-10-22T19:20:35.229Z,1208.2
2022-10-22T19:22:18.938Z,1207.2
2022-10-22T19:24:02.627Z,1204.9
2022-10-22T19:25:46.382Z,1207.4
2022-10-22T19:27:30.081Z,1211.4
2022-10-22T19:29:13.782Z,1214.1
2022-10-22T19:30:57.425Z,1218
2022-10-22T19:32:41.125Z,1225.8
2022-10-22T19:34:24.908Z,1226.5
2022-10-22T19:36:08.595Z,1229.9
2022-10-22T19:37:52.262Z,1228.9
2022-10-22T19:39:35.944Z,1228.8
2022-10-22T19:41:19.653Z,1229.7
2022-10-22T19:43:03.358Z,1229.5
2022-10-22T19:44:47.033Z,1231.2
2022-10-22T19:46:30.790Z,1229.4
2022-10-22T19:48:14.470Z,1229.5
2022-10-22T19:49:58.254Z,1240.1
2022-10-22T19:51:41.997Z,1245.9
2022-10-22T19:53:25.683Z,1251.8
2022-10-22T19:55:09.412Z,1253.7
2022-10-22T19:56:53.135Z,1255.3
2022-10-22T19:58:36.786Z,1254.7
2022-10-22T20:00:20.513Z,1252.8
2022-10-22T20:02:04.208Z,1254.4
2022-10-22T20:03:47.891Z,1256.1
2022-10-22T20:05:31.607Z,1262.1
2022-10-22T20:07:15.326Z,1276.5
2022-10-22T20:08:59.016Z,1282.8
2022-10-22T20:10:42.645Z,1282.7
2022-10-22T20:12:26.320Z,1286.6
2022-10-22T20:14:10.067Z,1291.4
2022-10-22T20:15:53.847Z,1289
2022-10-22T20:17:37.454Z,1280.7
2022-10-22T20:19:21.218Z,1274.2
2022-10-22T20:21:04.822Z,1273.5
2022-10-22T20:22:48.585Z,1273.1
2022-10-22T20:24:32.289Z,1275.8
2022-10-22T20:26:15.955Z,1280.3
2022-10-22T20:27:59.643Z,1275.2
2022-10-22T20:29:43.367Z,1278.7
2022-10-22T20:31:27.104Z,1273.3
2022-10-22T20:33:10.729Z,1262.9
2022-10-22T20:34:54.399Z,1253.1
2022-10-22T20:36:38.072Z,1245
2022-10-22T20:38:21.839Z,1238.5
2022-10-22T20:40:05.493Z,1235.9
2022-10-22T20:41:49.208Z,1237.3
2022-10-22T20:43:32.874Z,1239.6
2022-10-22T20:45:16.615Z,1250.1
2022-10-22T20:47:00.248Z,1267.9
2022-10-22T20:48:44.147Z,1277.6
2022-10-22T20:50:27.750Z,1284.6
2022-10-22T20:52:11.471Z,1319.9
2022-10-22T20:53:55.165Z,1351.3
2022-10-22T20:55:38.856Z,1373.2
2022-10-22T20:57:22.514Z,1385
2022-10-22T20:59:06.217Z,1389.7
2022-10-22T21:00:50.013Z,1394.7
2022-10-22T21:02:33.606Z,1399.6
2022-10-22T21:04:17.318Z,1400.2
2022-10-22T21:06:01.013Z,1400.6
2022-10-22T21:07:44.789Z,1392.6
2022-10-22T21:09:28.404Z,1392.8
2022-10-22T21:11:12.218Z,1391.5
2022-10-22T21:12:55.843Z,1388.6
2022-10-22T21:14:39.553Z,1368.2
2022-10-22T21:16:23.280Z,1359
2022-10-22T21:18:06.979Z,1358.8
2022-10-22T21:19:50.637Z,1360
2022-10-22T21:21:34.318Z,1365.2
2022-10-22T21:23:18.055Z,1368.3
2022-10-22T21:25:01.737Z,1369.7
2022-10-22T21:26:45.425Z,1368.7
2022-10-22T21:28:29.098Z,1368.9
2022-10-22T21:30:12.861Z,1368.7
2022-10-22T21:33:40.229Z,1369
2022-10-22T21:35:23.957Z,1367.7
2022-10-22T21:37:07.608Z,1371.6
2022-10-22T21:38:51.395Z,1372.5
2022-10-22T21:40:35.107Z,1366.9
2022-10-22T21:42:18.725Z,1358
2022-10-22T21:44:02.454Z,1354.7
2022-10-22T21:45:46.130Z,1352.4
2022-10-22T21:47:29.872Z,1349
2022-10-22T21:49:13.631Z,1349.7
2022-10-22T21:50:57.270Z,1349.9
2022-10-22T21:52:40.944Z,1347.4
2022-10-22T21:54:24.736Z,1348.3
2022-10-22T21:56:08.338Z,1353.2
2022-10-22T21:57:52.191Z,1349.7
2022-10-22T21:59:35.774Z,1353
2022-10-22T22:01:19.487Z,1355.2
2022-10-22T22:03:03.174Z,1350.4
2022-10-22T22:04:46.890Z,1342.7
2022-10-22T22:06:30.630Z,1336.1
2022-10-22T22:08:14.324Z,1330.2
2022-10-22T22:09:57.990Z,1323.9
2022-10-22T22:11:41.695Z,1315.5
2022-10-22T22:13:25.373Z,1319
2022-10-22T22:15:09.071Z,1322